createdAt,value
2019-02-24T00:02:11.461Z,9.73
2019-02-24T00:04:39.429Z,9.20
2019-02-24T00:07:06.539Z,10.57
2019-02-24T00:09:33.644Z,9.07
2019-02-24T00:12:00.713Z,9.20
2019-02-24T00:14:27.821Z,9.80
2019-02-24T00:16:54.916Z,9.40
2019-02-24T00:19:22.000Z,9.40
2019-02-24T00:21:49.133Z,9.73
2019-02-24T00:24:16.229Z,9.10
2019-02-24T00:26:43.326Z,9.53
2019-02-24T00:29:10.421Z,9.57
2019-02-24T00:31:37.479Z,9.83
2019-02-24T00:34:04.588Z,9.60
2019-02-24T00:36:31.716Z,9.50
2019-02-24T00:38:58.817Z,10.43
2019-02-24T00:41:25.908Z,9.30
2019-02-24T00:43:53.017Z,9.90
2019-02-24T00:46:20.113Z,10.00
2019-02-24T00:48:47.200Z,10.50
2019-02-24T00:51:14.281Z,10.00
2019-02-24T00:53:41.365Z,10.37
2019-02-24T00:56:08.448Z,9.97
2019-02-24T00:58:35.533Z,9.70
2019-02-24T01:01:02.612Z,9.67
2019-02-24T01:03:29.709Z,10.33
2019-02-24T01:05:56.807Z,10.20
2019-02-24T01:08:23.916Z,10.30
2019-02-24T01:10:51.054Z,9.57
2019-02-24T01:13:18.150Z,10.03
2019-02-24T01:15:45.241Z,9.93
2019-02-24T01:18:12.325Z,9.97
2019-02-24T01:20:39.415Z,10.73
2019-02-24T01:23:06.524Z,10.00
2019-02-24T01:25:33.631Z,10.83
2019-02-24T01:28:00.705Z,10.23
2019-02-24T01:30:27.796Z,10.10
2019-02-24T01:32:54.924Z,9.87
2019-02-24T01:35:22.014Z,10.10
2019-02-24T01:37:49.116Z,10.90
2019-02-24T01:40:16.201Z,9.40
2019-02-24T01:42:43.292Z,10.13
2019-02-24T01:45:10.380Z,10.13
2019-02-24T01:47:37.490Z,9.87
2019-02-24T01:50:05.376Z,9.67
2019-02-24T01:52:32.456Z,9.53
2019-02-24T01:54:59.545Z,10.30
2019-02-24T01:57:26.633Z,9.80
2019-02-24T01:59:53.717Z,9.43
2019-02-24T02:02:20.833Z,9.63
2019-02-24T02:04:47.929Z,10.03
2019-02-24T02:07:15.041Z,10.13
2019-02-24T02:09:42.134Z,10.27
2019-02-24T02:12:09.225Z,10.57
2019-02-24T02:14:36.461Z,10.97
2019-02-24T02:17:03.848Z,9.40
2019-02-24T02:19:31.331Z,10.37
2019-02-24T02:21:58.664Z,10.57
2019-02-24T02:24:26.610Z,10.60
2019-02-24T02:26:53.721Z,10.03
2019-02-24T02:29:20.808Z,9.83
2019-02-24T02:31:47.897Z,10.30
2019-02-24T02:34:15.068Z,9.90
2019-02-24T02:36:42.186Z,9.90
2019-02-24T02:39:09.290Z,10.47
2019-02-24T02:41:38.883Z,10.13
2019-02-24T02:44:07.173Z,10.37
2019-02-24T02:46:35.221Z,10.87
2019-02-24T02:49:04.457Z,9.47
2019-02-24T02:51:29.472Z,10.87
2019-02-24T02:53:56.620Z,9.50
2019-02-24T02:56:23.717Z,9.63
2019-02-24T02:58:54.258Z,9.73
2019-02-24T03:01:17.931Z,11.03
2019-02-24T03:03:45.029Z,10.47
2019-02-24T03:06:17.796Z,10.53
2019-02-24T03:08:46.150Z,10.57
2019-02-24T03:11:13.557Z,10.50
2019-02-24T03:13:40.665Z,10.70
2019-02-24T03:16:07.757Z,10.40
2019-02-24T03:18:34.829Z,10.33
2019-02-24T03:21:01.907Z,10.07
2019-02-24T03:23:29.027Z,10.27
2019-02-24T03:25:56.103Z,10.70
2019-02-24T03:28:23.185Z,11.03
2019-02-24T03:30:50.298Z,10.30
2019-02-24T03:33:17.378Z,10.87
2019-02-24T03:35:44.469Z,10.17
2019-02-24T03:38:11.536Z,10.90
2019-02-24T03:40:38.630Z,11.17
2019-02-24T03:43:05.717Z,10.37
2019-02-24T03:45:32.800Z,10.30
2019-02-24T03:47:59.916Z,11.17
2019-02-24T03:50:26.975Z,11.00
2019-02-24T03:52:54.069Z,11.03
2019-02-24T03:55:21.165Z,10.37
2019-02-24T03:57:48.246Z,10.43
2019-02-24T04:00:15.351Z,11.10
2019-02-24T04:02:42.448Z,10.23
2019-02-24T04:05:09.536Z,10.20
2019-02-24T04:07:36.592Z,10.80
2019-02-24T04:10:03.729Z,10.13
2019-02-24T04:12:30.867Z,9.87
2019-02-24T04:14:57.964Z,10.17
2019-02-24T04:17:25.058Z,9.83
2019-02-24T04:19:52.161Z,10.30
2019-02-24T04:22:19.248Z,9.87
2019-02-24T04:24:46.328Z,9.97
2019-02-24T04:27:13.413Z,9.37
2019-02-24T04:29:40.497Z,9.97
2019-02-24T04:32:07.636Z,9.77
2019-02-24T04:34:34.725Z,9.37
2019-02-24T04:37:01.794Z,9.63
2019-02-24T04:39:28.905Z,9.20
2019-02-24T04:41:55.993Z,9.63
2019-02-24T04:44:23.074Z,9.70
2019-02-24T04:46:50.195Z,9.63
2019-02-24T04:49:17.266Z,9.63
2019-02-24T04:51:44.356Z,8.93
2019-02-24T04:54:11.452Z,8.23
2019-02-24T04:56:38.532Z,9.03
2019-02-24T04:59:05.458Z,8.63
2019-02-24T05:01:32.556Z,8.63
2019-02-24T05:03:59.669Z,8.80
2019-02-24T05:06:26.740Z,9.30
2019-02-24T05:08:53.845Z,8.60
2019-02-24T05:11:20.932Z,9.03
2019-02-24T05:13:48.061Z,8.50
2019-02-24T05:16:15.149Z,8.27
2019-02-24T05:18:42.253Z,8.67
2019-02-24T05:21:09.369Z,8.97
2019-02-24T05:23:36.478Z,9.07
2019-02-24T05:26:03.569Z,8.70
2019-02-24T05:28:30.695Z,8.60
2019-02-24T05:30:57.765Z,8.77
2019-02-24T05:33:24.860Z,9.40
2019-02-24T05:35:51.970Z,8.53
2019-02-24T05:38:19.069Z,8.40
2019-02-24T05:40:46.165Z,8.60
2019-02-24T05:43:13.269Z,7.90
2019-02-24T05:45:40.372Z,8.40
2019-02-24T05:48:07.486Z,8.27
2019-02-24T05:50:34.560Z,8.17
2019-02-24T05:53:01.656Z,8.03
2019-02-24T05:55:28.777Z,8.07
2019-02-24T05:57:55.868Z,8.43
2019-02-24T06:00:22.992Z,8.20
2019-02-24T06:02:50.098Z,8.13
2019-02-24T06:05:17.186Z,7.77
2019-02-24T06:07:44.271Z,7.73
2019-02-24T06:10:11.385Z,8.87
2019-02-24T06:12:38.481Z,8.63
2019-02-24T06:15:05.599Z,8.93
2019-02-24T06:17:32.685Z,9.20
2019-02-24T06:19:59.802Z,8.80
2019-02-24T06:22:26.914Z,8.13
2019-02-24T06:24:54.000Z,8.33
2019-02-24T06:27:21.097Z,8.37
2019-02-24T06:29:48.177Z,8.53
2019-02-24T06:32:15.305Z,8.03
2019-02-24T06:34:42.412Z,8.27
2019-02-24T06:37:09.516Z,8.00
2019-02-24T06:39:36.600Z,7.20
2019-02-24T06:42:03.687Z,7.93
2019-02-24T06:44:30.765Z,8.20
2019-02-24T06:46:58.353Z,8.57
2019-02-24T06:49:25.100Z,7.90
2019-02-24T06:51:52.205Z,8.90
2019-02-24T06:54:19.314Z,7.80
2019-02-24T06:56:46.424Z,8.60
2019-02-24T06:59:13.497Z,8.00
2019-02-24T07:01:40.592Z,8.63
2019-02-24T07:04:07.663Z,8.57
2019-02-24T07:06:34.755Z,8.87
2019-02-24T07:09:01.936Z,8.40
2019-02-24T07:11:29.046Z,7.87
2019-02-24T07:13:56.130Z,8.33
2019-02-24T07:16:23.225Z,7.93
2019-02-24T07:18:50.326Z,8.37
2019-02-24T07:21:17.425Z,9.00
2019-02-24T07:23:44.544Z,7.97
2019-02-24T07:26:11.672Z,8.00
2019-02-24T07:28:38.772Z,8.50
2019-02-24T07:31:05.841Z,8.17
2019-02-24T07:33:32.921Z,8.10
2019-02-24T07:36:00.004Z,7.73
2019-02-24T07:38:27.109Z,7.93
2019-02-24T07:40:54.321Z,7.97
2019-02-24T07:43:21.440Z,8.63
2019-02-24T07:45:48.556Z,7.97
2019-02-24T07:48:15.670Z,9.10
2019-02-24T07:50:42.788Z,7.97
2019-02-24T07:53:09.883Z,8.33
2019-02-24T07:55:37.000Z,7.80
2019-02-24T07:58:04.090Z,8.77
2019-02-24T08:00:32.547Z,8.43
2019-02-24T08:02:58.310Z,8.33
2019-02-24T08:05:25.412Z,8.90
2019-02-24T08:07:52.525Z,8.83
2019-02-24T08:10:19.619Z,8.23
2019-02-24T08:12:46.704Z,8.87
2019-02-24T08:15:13.828Z,8.73
2019-02-24T08:17:40.950Z,8.53
2019-02-24T08:20:08.064Z,8.83
2019-02-24T08:22:35.153Z,8.70
2019-02-24T08:25:02.244Z,8.63
2019-02-24T08:27:29.354Z,8.83
2019-02-24T08:29:56.462Z,8.07
2019-02-24T08:32:23.577Z,8.77
2019-02-24T08:34:50.668Z,8.27
2019-02-24T08:37:17.755Z,8.40
2019-02-24T08:39:44.838Z,7.93
2019-02-24T08:42:11.924Z,8.40
2019-02-24T08:44:39.001Z,8.80
2019-02-24T08:47:06.097Z,8.47
2019-02-24T08:49:33.197Z,8.67
2019-02-24T08:52:00.277Z,9.00
2019-02-24T08:54:27.388Z,8.00
2019-02-24T08:56:55.682Z,7.67
2019-02-24T08:59:21.580Z,8.13
2019-02-24T09:01:48.664Z,7.87
2019-02-24T09:04:15.777Z,8.17
2019-02-24T09:06:42.868Z,8.33
2019-02-24T09:09:09.981Z,8.33
2019-02-24T09:11:37.068Z,8.60
2019-02-24T09:14:04.158Z,8.90
2019-02-24T09:16:31.248Z,8.10
2019-02-24T09:18:58.358Z,7.90
2019-02-24T09:21:25.459Z,8.60
2019-02-24T09:23:52.556Z,9.00
2019-02-24T09:26:19.628Z,8.37
2019-02-24T09:28:46.721Z,8.37
2019-02-24T09:31:13.880Z,8.47
2019-02-24T09:33:40.977Z,7.83
2019-02-24T09:36:08.104Z,8.30
2019-02-24T09:38:35.220Z,8.27
2019-02-24T09:41:02.334Z,8.47
2019-02-24T09:43:29.448Z,8.00
2019-02-24T09:45:56.565Z,8.80
2019-02-24T09:48:23.671Z,8.30
2019-02-24T09:50:50.743Z,8.60
2019-02-24T09:53:17.862Z,8.17
2019-02-24T09:55:44.945Z,8.47
2019-02-24T09:58:12.048Z,8.33
2019-02-24T10:00:39.137Z,8.00
2019-02-24T10:03:06.236Z,7.77
2019-02-24T10:05:33.326Z,7.37
2019-02-24T10:08:00.419Z,7.77
2019-02-24T10:10:27.509Z,8.10
2019-02-24T10:12:54.632Z,8.10
2019-02-24T10:15:21.706Z,7.43
2019-02-24T10:17:48.817Z,8.00
2019-02-24T10:20:15.909Z,8.17
2019-02-24T10:22:43.000Z,6.93
2019-02-24T10:25:10.117Z,7.40
2019-02-24T10:27:37.225Z,7.57
2019-02-24T10:30:04.340Z,8.73
2019-02-24T10:32:31.422Z,8.00
2019-02-24T10:34:58.516Z,8.10
2019-02-24T10:37:25.618Z,7.77
2019-02-24T10:39:52.696Z,7.87
2019-02-24T10:42:19.783Z,7.70
2019-02-24T10:44:46.872Z,8.17
2019-02-24T10:47:13.960Z,6.73
2019-02-24T10:49:41.049Z,7.13
2019-02-24T10:52:08.141Z,7.57
2019-02-24T10:54:35.245Z,7.60
2019-02-24T10:57:02.359Z,7.03
2019-02-24T10:59:29.492Z,7.40
2019-02-24T11:01:56.580Z,7.30
2019-02-24T11:04:23.656Z,7.50
2019-02-24T11:06:50.825Z,6.80
2019-02-24T11:09:17.922Z,6.73
2019-02-24T11:11:45.020Z,7.33
2019-02-24T11:14:12.121Z,7.27
2019-02-24T11:16:39.193Z,7.07
2019-02-24T11:19:06.329Z,6.70
2019-02-24T11:21:33.446Z,7.53
2019-02-24T11:24:00.553Z,7.57
2019-02-24T11:26:27.649Z,6.73
2019-02-24T11:28:54.744Z,6.87
2019-02-24T11:31:21.856Z,7.63
2019-02-24T11:33:48.983Z,7.37
2019-02-24T11:36:16.110Z,7.23
2019-02-24T11:38:43.190Z,7.07
2019-02-24T11:41:10.325Z,7.10
2019-02-24T11:43:37.435Z,6.40
2019-02-24T11:46:04.542Z,6.77
2019-02-24T11:48:31.672Z,6.77
2019-02-24T11:50:58.768Z,6.43
2019-02-24T11:53:25.864Z,6.03
2019-02-24T11:55:53.010Z,6.73
2019-02-24T11:58:20.098Z,5.93
2019-02-24T12:00:47.193Z,5.97
2019-02-24T12:03:14.265Z,5.60
2019-02-24T12:05:41.357Z,6.57
2019-02-24T12:08:08.472Z,6.37
2019-02-24T12:10:35.572Z,6.17
2019-02-24T12:13:02.644Z,6.27
2019-02-24T12:15:29.768Z,5.90
2019-02-24T12:17:56.872Z,5.60
2019-02-24T12:20:23.990Z,5.67
2019-02-24T12:22:51.072Z,5.27
2019-02-24T12:25:18.152Z,5.60
2019-02-24T12:27:45.282Z,5.60
2019-02-24T12:30:12.366Z,5.53
2019-02-24T12:32:39.472Z,5.43
2019-02-24T12:35:06.637Z,5.30
2019-02-24T12:37:33.732Z,5.50
2019-02-24T12:40:00.834Z,5.73
2019-02-24T12:42:27.944Z,5.20
2019-02-24T12:44:55.031Z,5.43
2019-02-24T12:47:22.099Z,5.40
2019-02-24T12:49:49.204Z,5.40
2019-02-24T12:52:16.290Z,4.90
2019-02-24T12:54:43.377Z,5.57
2019-02-24T12:57:10.469Z,4.97
2019-02-24T12:59:37.579Z,5.40
2019-02-24T13:02:05.935Z,5.13
2019-02-24T13:04:31.801Z,4.90
2019-02-24T13:06:58.905Z,4.20
2019-02-24T13:09:25.981Z,5.20
2019-02-24T13:11:53.093Z,5.20
2019-02-24T13:14:20.174Z,4.40
2019-02-24T13:16:47.279Z,4.53
2019-02-24T13:19:14.374Z,4.57
2019-02-24T13:21:41.500Z,4.67
2019-02-24T13:24:08.600Z,5.00
2019-02-24T13:26:35.718Z,4.97
2019-02-24T13:29:02.788Z,4.90
2019-02-24T13:31:29.856Z,4.47
2019-02-24T13:33:56.932Z,4.50
2019-02-24T13:36:24.024Z,4.97
2019-02-24T13:38:51.116Z,5.10
2019-02-24T13:41:18.221Z,4.33
2019-02-24T13:43:45.360Z,5.03
2019-02-24T13:46:12.433Z,4.50
2019-02-24T13:48:39.549Z,5.10
2019-02-24T13:51:06.636Z,4.13
2019-02-24T13:53:33.723Z,4.23
2019-02-24T13:56:00.881Z,4.27
2019-02-24T13:58:27.994Z,4.10
2019-02-24T14:00:55.116Z,4.23
2019-02-24T14:03:22.205Z,4.10
2019-02-24T14:05:49.314Z,4.37
2019-02-24T14:08:16.423Z,4.03
2019-02-24T14:10:43.508Z,3.97
2019-02-24T14:13:10.620Z,4.57
2019-02-24T14:15:37.700Z,4.13
2019-02-24T14:18:05.068Z,4.00
2019-02-24T14:20:32.150Z,4.23
2019-02-24T14:22:59.253Z,4.10
2019-02-24T14:25:26.354Z,4.20
2019-02-24T14:27:53.469Z,4.37
2019-02-24T14:30:20.581Z,3.63
2019-02-24T14:32:47.688Z,4.13
2019-02-24T14:35:14.855Z,3.80
2019-02-24T14:37:41.934Z,3.83
2019-02-24T14:40:09.064Z,4.00
2019-02-24T14:42:36.230Z,3.90
2019-02-24T14:45:04.242Z,3.80
2019-02-24T14:47:31.334Z,4.30
2019-02-24T14:49:58.467Z,3.60
2019-02-24T14:52:25.576Z,4.67
2019-02-24T14:54:52.681Z,3.63
2019-02-24T14:57:19.793Z,3.97
2019-02-24T14:59:46.945Z,3.50
2019-02-24T15:02:14.065Z,3.33
2019-02-24T15:04:41.153Z,3.97
2019-02-24T15:07:08.285Z,3.93
2019-02-24T15:09:35.411Z,3.67
2019-02-24T15:12:02.509Z,3.87
2019-02-24T15:14:29.615Z,3.87
2019-02-24T15:16:56.697Z,3.70
2019-02-24T15:19:23.789Z,3.73
2019-02-24T15:21:50.905Z,3.70
2019-02-24T15:24:18.025Z,4.00
2019-02-24T15:26:45.162Z,3.93
2019-02-24T15:29:12.255Z,3.30
2019-02-24T15:31:39.405Z,3.60
2019-02-24T15:34:06.504Z,3.50
2019-02-24T15:36:33.644Z,3.60
2019-02-24T15:39:00.726Z,3.80
2019-02-24T15:41:29.972Z,3.33
2019-02-24T15:43:55.019Z,3.40
2019-02-24T15:46:22.109Z,3.73
2019-02-24T15:48:49.220Z,3.13
2019-02-24T15:51:16.325Z,3.57
2019-02-24T15:53:43.419Z,3.30
2019-02-24T15:56:10.516Z,4.03
2019-02-24T15:58:37.605Z,3.67
2019-02-24T16:01:04.905Z,3.20
2019-02-24T16:03:32.033Z,3.23
2019-02-24T16:05:59.120Z,3.00
2019-02-24T16:08:26.203Z,3.30
2019-02-24T16:10:53.337Z,3.03
2019-02-24T16:13:20.427Z,3.40
2019-02-24T16:15:47.527Z,3.13
2019-02-24T16:18:14.636Z,3.53
2019-02-24T16:20:41.764Z,3.50
2019-02-24T16:23:08.873Z,3.60
2019-02-24T16:25:35.974Z,3.33
2019-02-24T16:28:03.057Z,3.47
2019-02-24T16:30:30.154Z,3.50
2019-02-24T16:32:57.277Z,3.00
2019-02-24T16:35:24.425Z,3.13
2019-02-24T16:37:51.560Z,3.07
2019-02-24T16:40:18.699Z,3.30
2019-02-24T16:42:45.800Z,3.50
2019-02-24T16:45:12.944Z,3.40
2019-02-24T16:47:40.046Z,3.60
2019-02-24T16:50:08.930Z,3.60
2019-02-24T16:52:36.029Z,3.27
2019-02-24T16:55:03.353Z,3.57
2019-02-24T16:57:30.492Z,3.23
2019-02-24T16:59:57.592Z,3.40
2019-02-24T17:02:24.700Z,3.07
2019-02-24T17:04:51.785Z,3.17
2019-02-24T17:07:18.936Z,3.50
2019-02-24T17:09:46.063Z,3.60
2019-02-24T17:12:13.149Z,3.57
2019-02-24T17:14:40.258Z,3.20
2019-02-24T17:17:07.375Z,2.90
2019-02-24T17:19:34.489Z,3.43
2019-02-24T17:22:01.606Z,2.97
2019-02-24T17:24:28.741Z,3.00
2019-02-24T17:26:55.842Z,3.00
2019-02-24T17:29:22.957Z,3.50
2019-02-24T17:31:50.050Z,3.87
2019-02-24T17:34:17.161Z,3.67
2019-02-24T17:36:44.280Z,3.47
2019-02-24T17:39:11.429Z,3.07
2019-02-24T17:41:38.552Z,3.00
2019-02-24T17:44:05.649Z,3.07
2019-02-24T17:46:32.754Z,3.00
2019-02-24T17:48:59.897Z,3.47
2019-02-24T17:51:27.041Z,3.20
2019-02-24T17:53:54.148Z,3.40
2019-02-24T17:56:21.241Z,3.03
2019-02-24T17:58:48.326Z,3.53
2019-02-24T18:01:15.452Z,3.50
2019-02-24T18:03:42.561Z,3.30
2019-02-24T18:06:09.669Z,3.50
2019-02-24T18:08:36.773Z,3.13
2019-02-24T18:11:03.885Z,3.70
2019-02-24T18:13:31.019Z,3.63
2019-02-24T18:15:58.117Z,3.23
2019-02-24T18:18:25.206Z,3.27
2019-02-24T18:20:52.305Z,3.27
2019-02-24T18:23:19.442Z,3.60
2019-02-24T18:25:46.552Z,3.50
2019-02-24T18:28:13.641Z,4.00
2019-02-24T18:30:40.766Z,3.80
2019-02-24T18:33:07.861Z,3.43
2019-02-24T18:35:34.948Z,3.87
2019-02-24T18:38:02.076Z,3.73
2019-02-24T18:40:29.189Z,3.70
2019-02-24T18:43:00.370Z,3.50
2019-02-24T18:45:23.426Z,3.47
2019-02-24T18:47:50.500Z,3.43
2019-02-24T18:50:17.594Z,3.40
2019-02-24T18:52:44.704Z,3.77
2019-02-24T18:55:11.821Z,3.37
2019-02-24T18:57:38.908Z,3.70
2019-02-24T19:00:07.322Z,3.80
2019-02-24T19:02:34.432Z,3.77
2019-02-24T19:05:01.558Z,4.33
2019-02-24T19:07:28.655Z,4.00
2019-02-24T19:09:55.761Z,4.03
2019-02-24T19:12:22.865Z,4.20
2019-02-24T19:14:50.528Z,4.30
2019-02-24T19:17:17.657Z,4.37
2019-02-24T19:19:44.764Z,4.53
2019-02-24T19:22:11.852Z,4.07
2019-02-24T19:24:38.952Z,4.33
2019-02-24T19:27:06.390Z,4.00
2019-02-24T19:29:34.428Z,4.33
2019-02-24T19:32:01.515Z,4.43
2019-02-24T19:34:28.596Z,3.97
2019-02-24T19:36:55.706Z,4.60
2019-02-24T19:39:22.812Z,4.53
2019-02-24T19:41:49.898Z,4.67
2019-02-24T19:44:17.021Z,4.27
2019-02-24T19:46:44.121Z,4.37
2019-02-24T19:49:11.229Z,4.33
2019-02-24T19:51:38.341Z,4.37
2019-02-24T19:54:05.452Z,4.40
2019-02-24T19:56:32.546Z,4.77
2019-02-24T19:58:59.645Z,4.50
2019-02-24T20:01:26.775Z,4.57
2019-02-24T20:03:53.862Z,4.60
2019-02-24T20:06:20.992Z,4.63
2019-02-24T20:08:48.112Z,4.67
2019-02-24T20:11:15.258Z,4.50
2019-02-24T20:13:42.364Z,4.90
2019-02-24T20:16:09.494Z,5.07
2019-02-24T20:18:36.576Z,5.23
2019-02-24T20:21:03.681Z,5.40
2019-02-24T20:23:30.772Z,4.93
2019-02-24T20:25:57.888Z,4.90
2019-02-24T20:28:24.985Z,4.47
2019-02-24T20:30:52.109Z,5.27
2019-02-24T20:33:19.239Z,5.50
2019-02-24T20:35:46.333Z,5.07
2019-02-24T20:38:13.440Z,5.47
2019-02-24T20:40:40.567Z,5.40
2019-02-24T20:43:07.657Z,5.00
2019-02-24T20:45:34.781Z,5.80
2019-02-24T20:48:01.914Z,5.43
2019-02-24T20:50:29.036Z,5.17
2019-02-24T20:52:56.173Z,5.80
2019-02-24T20:55:23.287Z,6.40
2019-02-24T20:57:50.394Z,6.13
2019-02-24T21:00:21.117Z,5.70
2019-02-24T21:02:48.237Z,6.60
2019-02-24T21:05:15.392Z,6.23
2019-02-24T21:07:42.492Z,6.53
2019-02-24T21:10:09.606Z,5.27
2019-02-24T21:12:36.845Z,6.17
2019-02-24T21:15:04.404Z,6.60
2019-02-24T21:17:31.524Z,6.20
2019-02-24T21:19:58.644Z,6.10
2019-02-24T21:22:25.736Z,6.33
2019-02-24T21:24:52.835Z,5.93
2019-02-24T21:27:19.936Z,6.40
2019-02-24T21:29:47.032Z,6.33
2019-02-24T21:32:14.173Z,6.70
2019-02-24T21:34:41.285Z,6.63
2019-02-24T21:37:08.389Z,6.40
2019-02-24T21:39:35.521Z,5.87
2019-02-24T21:42:02.614Z,6.33
2019-02-24T21:44:29.708Z,6.13
2019-02-24T21:46:56.768Z,6.20
2019-02-24T21:49:23.880Z,6.70
2019-02-24T21:51:51.014Z,6.60
2019-02-24T21:54:18.158Z,6.33
2019-02-24T21:56:45.255Z,6.80
2019-02-24T21:59:12.375Z,6.37
2019-02-24T22:01:39.477Z,6.30
2019-02-24T22:04:06.589Z,6.80
2019-02-24T22:06:33.676Z,6.43
2019-02-24T22:09:00.770Z,6.40
2019-02-24T22:11:27.885Z,6.60
2019-02-24T22:13:54.985Z,6.00
2019-02-24T22:16:22.101Z,6.00
2019-02-24T22:18:49.193Z,6.67
2019-02-24T22:21:16.326Z,6.20
2019-02-24T22:23:43.464Z,6.40
2019-02-24T22:26:10.583Z,6.77
2019-02-24T22:28:37.661Z,5.93
2019-02-24T22:31:04.754Z,6.53
2019-02-24T22:33:31.861Z,7.07
2019-02-24T22:35:58.984Z,6.60
2019-02-24T22:38:26.070Z,6.30
2019-02-24T22:40:54.560Z,7.10
2019-02-24T22:43:20.315Z,6.60
2019-02-24T22:45:47.442Z,7.00
2019-02-24T22:48:14.521Z,6.97
2019-02-24T22:50:41.653Z,7.23
2019-02-24T22:53:08.770Z,6.70
2019-02-24T22:55:35.881Z,7.93
2019-02-24T22:58:03.011Z,7.10
2019-02-24T23:00:41.597Z,7.37
2019-02-24T23:03:08.693Z,7.57
2019-02-24T23:05:35.780Z,6.27
2019-02-24T23:08:02.891Z,6.90
2019-02-24T23:10:30.004Z,6.73
2019-02-24T23:12:57.120Z,6.77
2019-02-24T23:15:24.213Z,6.93
2019-02-24T23:17:51.321Z,6.57
2019-02-24T23:20:18.440Z,7.10
2019-02-24T23:22:45.576Z,6.60
2019-02-24T23:25:12.683Z,7.23
2019-02-24T23:27:39.991Z,7.33
2019-02-24T23:30:07.366Z,7.10
2019-02-24T23:32:34.469Z,7.00
2019-02-24T23:35:01.599Z,7.23
2019-02-24T23:37:28.709Z,7.10
2019-02-24T23:39:55.802Z,7.40
2019-02-24T23:42:22.906Z,6.93
2019-02-24T23:44:49.989Z,6.97
2019-02-24T23:47:17.092Z,7.10
2019-02-24T23:49:44.206Z,7.63
2019-02-24T23:52:11.329Z,7.33
2019-02-24T23:54:38.431Z,7.10
2019-02-24T23:57:05.521Z,6.47
2019-02-24T23:59:32.641Z,8.37
